Home > Products > Valid Products > TAF

000
FTUS44 KMAF 220900 AAA
TAFMAF
TAF AMD
KMAF 220934Z 2210/2306 05005KT P6SM OVC016
     FM221900 21008KT P6SM FEW030 BKN050=



000
FTUS44 KMAF 220500
TAFMAF
TAF
KMAF 220520Z 2206/2306 15006KT P6SM BKN018
      TEMPO 2206/2209 5SM BR OVC010
     FM220900 15005KT 1SM BR OVC002
     FM221600 18005KT 6SM BR OVC015 PROB30 2216/2218 -TSRA OVC010CB
     FM221900 21008KT P6SM FEW030 BKN050=



000
FTUS44 KMAF 220100 AAA
TAFMAF
TAF AMD
KMAF 220157Z 2202/2224 15009KT P6SM SCT200
     FM220300 14007KT P6SM BKN030
     FM220700 15005KT 1SM BR OVC002
     FM221500 18005KT 6SM BR OVC015 PROB30 2215/2217 -TSRA OVC010CB
     FM221900 21008KT P6SM FEW030 BKN050=



000
FTUS44 KMAF 212300
TAFMAF
TAF
KMAF 212335Z 2200/2224 15009KT P6SM SCT200
     FM220300 14007KT 5SM BR OVC004
     FM220500 15005KT 1SM BR OVC002 PROB30 2209/2213 5SM -TSRA
      OVC007CB
     FM221500 18005KT 5SM BR OVC010 PROB30 2215/2217 -TSRA OVC010CB
     FM221900 21008KT P6SM FEW030 BKN050=



000
FTUS44 KMAF 211700
TAFMAF
TAF
KMAF 211739Z 2118/2218 16010KT P6SM BKN200
     FM220200 13007KT 5SM BR OVC004
     FM220500 12004KT 1SM BR OVC002 PROB30 2206/2210 5SM -TSRA
      OVC007CB
     FM221500 18005KT 5SM BR OVC004 PROB30 2215/2217 -TSRA OVC010CB=



000
FTUS44 KMAF 211600 AAD
TAFMAF
TAF AMD
KMAF 211627Z 2116/2212 17008KT 6SM BR BKN200
      TEMPO 2116/2117 SCT003
     FM211700 16011KT P6SM BKN200
     FM220200 14010KT 5SM BR OVC006=



000
FTUS44 KMAF 211500 AAC
TAFMAF
TAF AMD
KMAF 211558Z 2116/2212 15008KT 2SM BR OVC002
      TEMPO 2116/2117 4SM BR OVC006
     FM211700 16011KT P6SM BKN200
     FM220200 14010KT 5SM BR OVC006=



000
FTUS44 KMAF 211500 AAC
TAFMAF
TAF AMD
KMAF 211558Z 2116/2212 15008KT 2SM BR OVC002
      TEMPO 2116/2117 4SM BR OVC006
     FM211700 16011KT P6SM BKN200
     FM220200 14010KT 5SM BR OVC006=



000
FTUS44 KMAF 211500 AAB
TAFMAF
TAF AMD
KMAF 211545Z 2116/2212 15005KT 1/2SM FG OVC002
      TEMPO 2116/2117 2SM BR OVC006
     FM211700 16011KT P6SM BKN200
     FM220200 14010KT 5SM BR OVC006=



000
FTUS44 KMAF 211500 AAA
TAFMAF
TAF AMD
KMAF 211537Z 2116/2212 15005KT 1/2SM FG VV002
      TEMPO 2116/2117 2SM BR OVC006
     FM211700 16011KT P6SM BKN200
     FM220200 14010KT 5SM BR OVC006=



000
FTUS44 KMAF 211400 AAB
TAFMAF
TAF AMD
KMAF 211438Z 2115/2212 19005KT 1/4SM FG VV002
      TEMPO 2115/2117 2SM BR OVC003
     FM211700 16011KT P6SM BKN200
     FM220200 14010KT 5SM BR OVC006=



000
FTUS44 KMAF 211200 AAA
TAFMAF
TAF AMD
KMAF 211250Z 2113/2212 19005KT 1/4SM FG VV001
      TEMPO 2113/2117 2SM BR OVC002
     FM211700 16011KT P6SM BKN200
     FM220200 14010KT 5SM BR OVC006
      AMD NOT SKED=



000
FTUS44 KMAF 211100
TAFMAF
TAF
KMAF 211120Z 2112/2212 19007KT 3SM BR OVC003
      TEMPO 2113/2117 1/2SM FG OVC001
     FM211700 16011KT P6SM BKN200
     FM220200 14010KT 5SM BR OVC006
      AMD NOT SKED=



000
FTUS44 KMAF 210500
TAFMAF
TAF
KMAF 210529Z 2106/2206 19006KT P6SM FEW200
     FM212000 15011KT P6SM SCT200
     FM220300 16007KT 5SM BR BKN025=



000
FTUS44 KMAF 202300
TAFMAF
TAF
KMAF 202321Z 2100/2124 19007KT P6SM SKC
      TEMPO 2111/2114 4SM BR BKN010=



000
FTUS44 KMAF 201800 AAA
TAFMAF
TAF AMD
KMAF 201820Z 2018/2118 22011KT P6SM SKC=



000
FTUS44 KMAF 201700
TAFMAF
TAF
KMAF 201726Z 2018/2118 21011KT P6SM SKC=



000
FTUS44 KMAF 201100
TAFMAF
TAF
KMAF 201120Z 2012/2112 22011KT P6SM SKC=



000
FTUS44 KMAF 200500
TAFMAF
TAF
KMAF 200523Z 2006/2106 20006KT P6SM SCT200
     FM201400 22011KT P6SM FEW250
     FM210000 20006KT P6SM FEW200=



000
FTUS44 KMAF 200400 AAA
TAFMAF
TAF AMD
KMAF 200415Z 2004/2024 19006KT P6SM SCT200
     FM201300 21008KT P6SM FEW250=



000
FTUS44 KMAF 192300
TAFMAF
TAF
KMAF 192320Z 2000/2024 20006KT P6SM SCT200
     FM201300 21008KT P6SM SKC=



000
FTUS44 KMAF 191700
TAFMAF
TAF
KMAF 191720Z 1918/2018 25009KT P6SM SCT250
     FM200000 17006KT P6SM FEW200=



000
FTUS44 KMAF 191100
TAFMAF
TAF
KMAF 191121Z 1912/2012 22010KT P6SM FEW250
     FM191500 25009KT P6SM SCT250
     FM200000 17006KT P6SM FEW200=



    US Dept of Commerce
    National Oceanic and Atmospheric Administration
    National Weather Service
    1325 East West Highway
    Silver Spring, MD 20910
    Page Author: NWS Internet Services Team
Disclaimer
Information Quality
Credits
Glossary
Privacy Policy
Freedom of Information Act (FOIA)
About Us
Career Opportunities